Time;durP1;ratioP1;P1;durP2;ratioP2;P2;SDS_P1;SDS_P2;PMS_P1;PMS_P2;Temp;Humidity;BMP_temperature;BMP_pressure;BME280_temperature;BME280_humidity;BME280_pressure;Samples;Min_cycle;Max_cycle;Signal;HPM_P1;HPM_P2
2021/10/29 00:00:20;;;;;;;23.58;16.30;;;10.90;95.30;;;;;;5090975;28;20028;-62
2021/10/29 00:02:45;;;;;;;26.70;17.02;;;10.90;95.30;;;;;;5095113;28;20038;-62
2021/10/29 00:05:11;;;;;;;27.17;16.77;;;10.90;95.30;;;;;;5078343;28;20491;-62
2021/10/29 00:07:36;;;;;;;28.13;17.25;;;10.90;95.30;;;;;;5074592;28;20064;-62
2021/10/29 00:10:03;;;;;;;27.73;17.60;;;10.80;95.30;;;;;;5077918;28;20371;-62
2021/10/29 00:12:28;;;;;;;25.05;16.48;;;10.80;95.30;;;;;;5094526;28;20024;-62
2021/10/29 00:14:54;;;;;;;26.52;16.83;;;10.80;95.30;;;;;;5079660;28;20032;-62
2021/10/29 00:17:20;;;;;;;27.08;17.42;;;10.80;95.30;;;;;;5074696;28;20096;-62
2021/10/29 00:19:47;;;;;;;24.77;17.50;;;10.80;95.30;;;;;;5081550;28;20501;-62
2021/10/29 00:22:12;;;;;;;27.50;17.60;;;10.70;95.30;;;;;;5094768;28;20135;-62
2021/10/29 00:24:38;;;;;;;27.85;17.95;;;10.70;95.30;;;;;;5081852;28;20099;-62
2021/10/29 00:27:04;;;;;;;28.02;18.30;;;10.70;95.40;;;;;;5074230;28;20025;-62
2021/10/29 00:29:29;;;;;;;30.92;17.83;;;10.70;95.40;;;;;;5076845;28;20397;-62
2021/10/29 00:38:38;;;;;;;28.88;18.40;;;10.60;95.50;;;;;;5074573;28;20412;-62
2021/10/29 00:41:04;;;;;;;27.90;17.77;;;10.60;95.40;;;;;;5091305;28;20032;-62
2021/10/29 00:43:30;;;;;;;28.60;19.00;;;10.60;95.40;;;;;;5091984;28;20032;-62
2021/10/29 00:45:55;;;;;;;27.80;17.05;;;10.50;95.50;;;;;;5091714;28;20031;-63
2021/10/29 00:48:21;;;;;;;28.92;17.85;;;10.50;95.50;;;;;;5084731;28;20441;-62
2021/10/29 00:50:46;;;;;;;35.28;20.20;;;10.50;95.50;;;;;;5094373;28;20434;-62
2021/10/29 00:53:13;;;;;;;28.83;19.27;;;10.40;95.50;;;;;;5083334;28;20040;-62
2021/10/29 00:55:39;;;;;;;26.45;18.10;;;10.40;95.50;;;;;;5076673;28;20134;-62
2021/10/29 00:58:04;;;;;;;28.42;18.27;;;10.40;95.50;;;;;;5083544;28;20056;-62
2021/10/29 01:00:30;;;;;;;29.77;19.23;;;10.40;95.60;;;;;;5093518;28;20024;-62
2021/10/29 01:02:56;;;;;;;29.05;18.73;;;10.40;95.60;;;;;;5084317;28;20126;-62
2021/10/29 01:05:21;;;;;;;32.78;18.23;;;10.30;95.60;;;;;;5085282;28;20036;-62
2021/10/29 01:07:47;;;;;;;31.50;18.58;;;10.40;95.60;;;;;;5090117;28;20029;-62
2021/10/29 01:10:13;;;;;;;32.60;19.40;;;10.40;95.60;;;;;;5082940;28;20021;-62
2021/10/29 01:12:38;;;;;;;31.92;19.10;;;10.40;95.60;;;;;;5073058;28;20028;-62
2021/10/29 01:15:06;;;;;;;32.33;20.55;;;10.30;95.60;;;;;;5073829;28;20119;-62
2021/10/29 01:17:32;;;;;;;29.77;19.13;;;10.30;95.60;;;;;;5073491;28;20016;-62
2021/10/29 01:19:59;;;;;;;31.75;21.42;;;10.30;95.60;;;;;;5089675;28;20032;-62
2021/10/29 01:22:26;;;;;;;31.23;19.92;;;10.30;95.70;;;;;;5089695;28;20460;-62
2021/10/29 01:24:52;;;;;;;29.73;18.70;;;10.20;95.70;;;;;;5074630;28;20078;-62
2021/10/29 01:27:19;;;;;;;32.45;20.13;;;10.20;95.80;;;;;;5073430;28;20071;-61
2021/10/29 01:29:46;;;;;;;31.08;20.15;;;10.20;95.70;;;;;;5081564;28;20572;-62
2021/10/29 01:32:12;;;;;;;31.20;19.92;;;10.20;95.80;;;;;;5092781;28;20024;-62
2021/10/29 01:34:39;;;;;;;33.10;20.60;;;10.20;95.80;;;;;;5083542;28;20038;-62
2021/10/29 01:37:06;;;;;;;32.15;20.70;;;10.10;95.80;;;;;;5093369;28;20077;-62
2021/10/29 01:39:32;;;;;;;36.08;22.38;;;10.00;95.80;;;;;;5073906;28;20024;-62
2021/10/29 01:41:58;;;;;;;34.65;20.98;;;10.00;95.80;;;;;;5072934;28;20396;-61
2021/10/29 01:44:23;;;;;;;34.45;20.50;;;10.10;95.80;;;;;;5078329;28;20019;-62
2021/10/29 01:46:49;;;;;;;31.42;20.30;;;10.10;95.90;;;;;;5086734;28;20103;-62
2021/10/29 01:49:15;;;;;;;31.77;20.00;;;10.00;95.90;;;;;;5078232;28;20372;-62
2021/10/29 01:51:41;;;;;;;32.05;21.00;;;10.00;96.10;;;;;;5092058;28;20039;-62
2021/10/29 01:54:06;;;;;;;32.42;19.52;;;10.00;96.00;;;;;;5089654;28;20516;-62
2021/10/29 01:56:33;;;;;;;29.17;19.27;;;10.00;96.00;;;;;;5092671;28;20039;-62
2021/10/29 01:58:58;;;;;;;29.20;18.88;;;9.90;96.00;;;;;;5075212;28;20017;-62
2021/10/29 02:01:24;;;;;;;32.97;20.80;;;9.90;96.00;;;;;;5072630;28;20032;-62
2021/10/29 02:03:50;;;;;;;31.73;21.15;;;10.00;96.10;;;;;;5072264;28;20411;-62
2021/10/29 02:06:15;;;;;;;37.25;22.27;;;9.90;96.00;;;;;;5072048;28;20126;-62
2021/10/29 02:08:41;;;;;;;29.98;18.95;;;9.90;96.10;;;;;;5071977;28;20459;-61
2021/10/29 02:11:06;;;;;;;32.17;19.38;;;9.90;96.10;;;;;;5072821;28;20033;-62
2021/10/29 02:13:32;;;;;;;34.70;20.45;;;9.90;96.20;;;;;;5072179;28;20024;-62
2021/10/29 02:15:57;;;;;;;35.10;21.23;;;9.90;96.20;;;;;;5072566;28;20067;-62
2021/10/29 02:18:23;;;;;;;32.85;21.35;;;9.90;96.20;;;;;;5072051;28;20020;-62
2021/10/29 02:20:49;;;;;;;34.90;19.88;;;9.90;96.10;;;;;;5086169;28;20031;-62
2021/10/29 02:23:15;;;;;;;35.72;21.83;;;9.90;96.20;;;;;;5072216;28;20478;-62
2021/10/29 02:25:44;;;;;;;34.25;21.02;;;9.90;96.10;;;;;;5072753;28;20518;-62
2021/10/29 02:28:15;;;;;;;33.88;20.38;;;9.90;96.10;;;;;;5079174;28;20023;-62
2021/10/29 02:30:41;;;;;;;34.22;21.80;;;9.90;96.20;;;;;;5100136;28;20028;-62
2021/10/29 02:33:08;;;;;;;34.03;20.38;;;9.80;96.10;;;;;;5103910;28;20028;-62
2021/10/29 02:35:33;;;;;;;32.25;21.02;;;9.80;96.10;;;;;;5089398;28;20039;-62
2021/10/29 02:37:59;;;;;;;35.47;21.52;;;9.80;96.20;;;;;;5078992;28;20036;-62
2021/10/29 02:40:24;;;;;;;36.00;21.45;;;9.80;96.30;;;;;;5080888;28;20028;-62
2021/10/29 02:42:50;;;;;;;32.15;20.92;;;9.70;96.20;;;;;;5072033;28;20032;-62
2021/10/29 02:45:15;;;;;;;32.88;21.00;;;9.70;96.30;;;;;;5082567;28;20042;-62
2021/10/29 02:47:46;;;;;;;33.58;21.45;;;9.70;96.30;;;;;;5092095;28;20054;-62
2021/10/29 02:50:13;;;;;;;34.13;20.60;;;9.70;96.30;;;;;;5078719;28;20377;-62
2021/10/29 02:52:38;;;;;;;33.10;22.02;;;9.70;96.30;;;;;;5078337;28;20036;-63
2021/10/29 02:55:04;;;;;;;35.55;20.92;;;9.60;96.30;;;;;;5090671;28;20042;-62
2021/10/29 02:57:30;;;;;;;37.80;21.75;;;9.60;96.30;;;;;;5091260;28;20085;-62
2021/10/29 02:59:55;;;;;;;33.40;21.45;;;9.60;96.30;;;;;;5074782;28;20469;-62
2021/10/29 03:02:21;;;;;;;36.42;21.77;;;9.60;96.30;;;;;;5075050;28;20028;-62
2021/10/29 03:04:47;;;;;;;35.22;22.27;;;9.50;96.30;;;;;;5081140;28;20115;-62
2021/10/29 03:07:12;;;;;;;33.88;21.50;;;9.50;96.30;;;;;;5073534;28;20043;-62
2021/10/29 03:09:38;;;;;;;35.28;21.08;;;9.50;96.30;;;;;;5082251;28;20050;-62
2021/10/29 03:12:04;;;;;;;33.78;21.48;;;9.50;96.40;;;;;;5074795;28;20024;-62
2021/10/29 03:14:29;;;;;;;33.05;21.08;;;9.50;96.60;;;;;;5083799;28;20024;-62
2021/10/29 03:16:54;;;;;;;33.35;21.27;;;9.50;96.50;;;;;;5088062;28;20016;-62
2021/10/29 03:19:20;;;;;;;38.90;23.27;;;9.50;96.40;;;;;;5070529;28;20055;-62
2021/10/29 03:21:46;;;;;;;40.60;22.88;;;9.40;96.40;;;;;;5071450;28;20071;-62
2021/10/29 03:24:11;;;;;;;34.72;20.90;;;9.30;96.40;;;;;;5070816;28;20094;-62
2021/10/29 03:26:37;;;;;;;41.42;24.45;;;9.30;96.50;;;;;;5071615;28;20028;-63
2021/10/29 03:29:02;;;;;;;38.50;23.00;;;9.30;96.50;;;;;;5074161;28;20056;-62
2021/10/29 03:31:28;;;;;;;34.00;22.15;;;9.20;96.60;;;;;;5081240;28;20519;-62
2021/10/29 03:33:56;;;;;;;36.67;21.17;;;9.20;96.60;;;;;;5075824;28;20028;-61
2021/10/29 03:36:22;;;;;;;35.90;22.02;;;9.20;96.70;;;;;;5075433;28;20029;-62
2021/10/29 03:38:56;;;;;;;36.97;21.75;;;9.20;96.70;;;;;;5075177;28;20027;-62
2021/10/29 03:41:24;;;;;;;33.10;22.00;;;9.10;96.70;;;;;;5081442;28;20031;-62
2021/10/29 03:44:06;;;;;;;32.95;22.23;;;9.20;96.70;;;;;;5091534;28;20036;-62
2021/10/29 03:46:32;;;;;;;37.13;21.95;;;9.10;96.70;;;;;;5075484;28;20032;-62
2021/10/29 03:49:02;;;;;;;38.92;23.00;;;9.10;96.80;;;;;;5077056;28;20036;-62
2021/10/29 03:54:31;;;;;;;35.35;21.13;;;9.10;96.80;;;;;;5056624;28;20036;-63
2021/10/29 03:59:26;;;;;;;34.13;22.50;;;9.10;96.80;;;;;;5080901;28;20023;-61
2021/10/29 04:01:52;;;;;;;35.00;20.60;;;9.10;96.90;;;;;;5094388;28;20056;-61
2021/10/29 04:04:17;;;;;;;36.05;21.73;;;9.00;96.90;;;;;;5091863;28;20024;-61
2021/10/29 04:06:43;;;;;;;33.38;22.30;;;9.00;96.90;;;;;;5094991;28;20032;-61
2021/10/29 04:09:08;;;;;;;34.95;21.52;;;9.00;96.90;;;;;;5090898;28;20510;-62
2021/10/29 04:11:37;;;;;;;37.72;23.85;;;9.00;96.90;;;;;;5074972;28;20037;-61
2021/10/29 04:14:05;;;;;;;37.55;22.42;;;9.00;96.90;;;;;;5074752;28;20032;-61
2021/10/29 04:16:36;;;;;;;33.50;22.48;;;9.00;96.90;;;;;;5074736;28;20034;-62
2021/10/29 04:19:02;;;;;;;36.40;22.08;;;9.00;96.90;;;;;;5076833;28;20012;-62
2021/10/29 04:21:27;;;;;;;38.63;23.13;;;9.00;96.90;;;;;;5094840;28;20039;-62
2021/10/29 04:23:53;;;;;;;36.85;22.30;;;9.00;97.00;;;;;;5091557;28;20020;-62
2021/10/29 04:26:18;;;;;;;34.97;21.88;;;9.00;97.00;;;;;;5093630;28;20488;-62
2021/10/29 04:28:44;;;;;;;37.35;22.42;;;8.90;97.00;;;;;;5090025;28;20111;-62
2021/10/29 04:31:18;;;;;;;36.92;22.88;;;8.90;97.00;;;;;;5095017;28;20020;-62
2021/10/29 04:33:43;;;;;;;40.00;22.70;;;8.90;97.00;;;;;;5089626;28;20029;-62
2021/10/29 04:36:09;;;;;;;35.28;21.75;;;8.90;97.00;;;;;;5085523;28;20309;-62
2021/10/29 04:38:35;;;;;;;39.47;22.83;;;8.90;97.10;;;;;;5073686;28;20026;-62
2021/10/29 04:41:00;;;;;;;32.15;20.88;;;8.90;97.20;;;;;;5074499;28;20037;-62
2021/10/29 04:43:26;;;;;;;34.63;20.83;;;8.90;97.20;;;;;;5072529;28;20127;-62
2021/10/29 04:45:51;;;;;;;33.80;21.45;;;8.90;97.20;;;;;;5091545;28;20456;-61
2021/10/29 04:48:17;;;;;;;31.77;20.20;;;8.80;97.20;;;;;;5094448;28;20024;-62
2021/10/29 04:50:42;;;;;;;33.85;20.88;;;8.90;97.20;;;;;;5073731;28;20028;-62
2021/10/29 04:53:10;;;;;;;35.13;21.55;;;8.80;97.20;;;;;;5073750;28;20546;-62
2021/10/29 04:55:36;;;;;;;38.15;22.80;;;8.80;97.20;;;;;;5088819;28;20043;-62
2021/10/29 04:58:02;;;;;;;35.25;22.42;;;8.80;97.20;;;;;;5082085;28;20033;-61
2021/10/29 05:00:27;;;;;;;33.25;20.60;;;8.70;97.40;;;;;;5084056;28;20058;-62
2021/10/29 05:02:54;;;;;;;34.70;21.05;;;8.70;97.30;;;;;;5093108;28;20055;-62
2021/10/29 05:05:21;;;;;;;36.22;22.23;;;8.70;97.30;;;;;;5077812;28;20491;-61
2021/10/29 05:07:46;;;;;;;36.65;21.27;;;8.70;97.30;;;;;;5073754;28;20111;-62
2021/10/29 05:10:11;;;;;;;37.03;22.83;;;8.60;97.30;;;;;;5085977;28;20068;-62
2021/10/29 05:12:37;;;;;;;37.25;23.00;;;8.60;97.30;;;;;;5092626;28;20491;-62
2021/10/29 05:15:03;;;;;;;35.17;21.30;;;8.60;97.40;;;;;;5092304;28;20028;-61
2021/10/29 05:17:28;;;;;;;38.63;23.48;;;8.60;97.40;;;;;;5083145;28;20075;-62
2021/10/29 05:19:54;;;;;;;39.55;20.77;;;8.50;97.40;;;;;;5074317;28;20092;-62
2021/10/29 05:22:19;;;;;;;34.15;21.35;;;8.50;97.50;;;;;;5073716;28;20127;-61
2021/10/29 05:24:45;;;;;;;32.40;21.05;;;8.50;97.50;;;;;;5080632;28;20024;-61
2021/10/29 05:27:10;;;;;;;35.08;22.25;;;8.50;97.50;;;;;;5093532;28;20027;-61
2021/10/29 05:29:36;;;;;;;35.28;21.23;;;8.50;97.50;;;;;;5090900;28;20531;-62
2021/10/29 05:32:02;;;;;;;37.22;22.17;;;8.50;97.50;;;;;;5079222;28;20043;-62
2021/10/29 05:34:31;;;;;;;37.95;23.08;;;8.50;97.50;;;;;;5079136;28;20039;-62
2021/10/29 05:36:56;;;;;;;37.95;21.52;;;8.50;97.50;;;;;;5072750;28;20118;-62
2021/10/29 05:39:24;;;;;;;31.85;20.65;;;8.50;97.50;;;;;;5078703;28;20487;-61
2021/10/29 05:41:49;;;;;;;35.67;20.75;;;8.50;97.60;;;;;;5092098;28;20047;-62
2021/10/29 05:44:16;;;;;;;37.97;22.48;;;8.50;97.60;;;;;;5091438;28;20026;-62
2021/10/29 05:46:43;;;;;;;38.90;22.45;;;8.50;97.50;;;;;;5084969;28;20119;-61
2021/10/29 05:49:13;;;;;;;33.10;21.08;;;8.50;97.60;;;;;;5075811;28;20020;-62
2021/10/29 05:51:44;;;;;;;35.95;21.55;;;8.50;97.60;;;;;;5076234;28;20446;-62
2021/10/29 05:54:38;;;;;;;39.45;21.25;;;8.50;97.60;;;;;;5079845;28;20040;-62
2021/10/29 05:57:01;;;;;;;35.70;21.92;;;8.50;97.60;;;;;;5076462;28;20031;-62
2021/10/29 05:59:28;;;;;;;35.63;21.65;;;8.50;97.60;;;;;;5080161;28;20033;-62
2021/10/29 06:01:54;;;;;;;35.90;21.70;;;8.50;97.60;;;;;;5072874;28;20036;-61
2021/10/29 06:04:19;;;;;;;34.95;21.70;;;8.50;97.60;;;;;;5077699;28;20127;-64
2021/10/29 06:06:45;;;;;;;34.38;21.15;;;8.50;97.60;;;;;;5079817;28;20044;-64
2021/10/29 06:09:11;;;;;;;35.33;20.90;;;8.50;97.60;;;;;;5074250;28;20415;-64
2021/10/29 06:11:36;;;;;;;37.17;21.48;;;8.40;97.60;;;;;;5084626;28;20036;-64
2021/10/29 06:14:03;;;;;;;35.63;22.08;;;8.50;97.60;;;;;;5080095;28;20488;-64
2021/10/29 06:16:29;;;;;;;34.95;21.70;;;8.50;97.60;;;;;;5080678;28;20503;-64
2021/10/29 06:18:54;;;;;;;35.95;22.23;;;8.50;97.60;;;;;;5082272;28;20033;-64
2021/10/29 06:21:30;;;;;;;34.38;20.95;;;8.50;97.70;;;;;;5076184;28;20190;-64
2021/10/29 06:24:09;;;;;;;36.50;21.88;;;8.50;97.70;;;;;;5080432;28;20422;-63
2021/10/29 06:26:52;;;;;;;35.95;22.85;;;8.50;97.70;;;;;;5079219;28;20048;-62
2021/10/29 06:29:17;;;;;;;32.63;19.98;;;8.50;97.60;;;;;;5071363;28;20372;-64
2021/10/29 06:31:43;;;;;;;33.22;21.13;;;8.40;97.70;;;;;;5071083;28;20035;-64
2021/10/29 06:34:10;;;;;;;33.78;20.65;;;8.40;97.70;;;;;;5072565;28;20027;-63
2021/10/29 06:36:36;;;;;;;36.22;21.73;;;8.50;97.70;;;;;;5079374;28;20036;-63
2021/10/29 06:39:03;;;;;;;33.10;22.10;;;8.50;97.70;;;;;;5071447;28;20016;-64
2021/10/29 06:41:28;;;;;;;39.92;23.05;;;8.50;97.70;;;;;;5080188;28;20036;-64
2021/10/29 06:52:12;;;;;;;39.15;22.52;;;8.50;97.80;;;;;;5082962;28;20056;-64
2021/10/29 07:00:26;;;;;;;34.57;21.70;;;8.50;97.80;;;;;;5074997;28;20025;-64
2021/10/29 07:03:25;;;;;;;37.80;22.67;;;8.50;97.80;;;;;;5078322;28;20044;-65
2021/10/29 07:41:22;;;;;;;32.40;20.58;;;8.90;97.80;;;;;;5070955;28;20040;-63
2021/10/29 07:43:54;;;;;;;32.60;19.83;;;8.90;97.80;;;;;;5071200;28;20033;-63
2021/10/29 07:46:21;;;;;;;31.40;19.85;;;9.00;97.80;;;;;;5076513;28;20415;-63
2021/10/29 07:48:47;;;;;;;33.20;21.38;;;9.00;97.80;;;;;;5079993;28;20040;-63
2021/10/29 07:51:14;;;;;;;34.08;20.00;;;9.00;97.70;;;;;;5072429;28;20071;-64
2021/10/29 07:53:39;;;;;;;34.97;21.00;;;9.00;97.70;;;;;;5069675;28;20123;-63
2021/10/29 07:56:06;;;;;;;32.13;20.60;;;9.10;97.70;;;;;;5074961;28;20491;-63
2021/10/29 07:58:33;;;;;;;29.42;19.92;;;9.10;97.70;;;;;;5082078;28;20031;-63
2021/10/29 08:01:00;;;;;;;29.80;19.85;;;9.10;97.70;;;;;;5071304;28;20025;-63
2021/10/29 08:03:26;;;;;;;32.63;19.67;;;9.20;97.80;;;;;;5070702;28;20077;-63
2021/10/29 08:05:52;;;;;;;33.72;21.48;;;9.30;97.80;;;;;;5085490;28;20111;-63
2021/10/29 08:08:19;;;;;;;29.77;19.85;;;9.30;97.80;;;;;;5078411;28;20115;-63
2021/10/29 08:10:45;;;;;;;29.55;19.35;;;9.40;97.80;;;;;;5075824;28;20435;-63
2021/10/29 08:13:11;;;;;;;29.02;19.23;;;9.50;97.80;;;;;;5070341;28;20035;-63
2021/10/29 08:15:38;;;;;;;29.40;19.38;;;9.50;97.70;;;;;;5072945;28;20115;-63
2021/10/29 08:18:05;;;;;;;29.30;19.38;;;9.60;97.70;;;;;;5086674;28;20042;-63
2021/10/29 08:20:32;;;;;;;27.65;18.65;;;9.70;97.60;;;;;;5074843;28;20484;-64
2021/10/29 08:22:58;;;;;;;31.88;19.17;;;9.70;97.60;;;;;;5086191;28;20409;-64
2021/10/29 08:25:24;;;;;;;32.03;20.58;;;9.80;97.60;;;;;;5077981;28;20050;-64
2021/10/29 08:27:49;;;;;;;31.73;18.73;;;9.80;97.50;;;;;;5083340;28;20036;-64
2021/10/29 08:30:16;;;;;;;29.58;18.17;;;9.80;97.50;;;;;;5077414;28;20066;-63
2021/10/29 08:32:43;;;;;;;29.83;18.52;;;9.90;97.50;;;;;;5081677;28;20028;-63
2021/10/29 08:35:10;;;;;;;26.85;17.60;;;10.00;97.50;;;;;;5079505;28;20086;-63
2021/10/29 08:37:36;;;;;;;29.50;17.98;;;10.00;97.30;;;;;;5088093;28;20024;-63
2021/10/29 08:40:05;;;;;;;31.15;19.48;;;10.10;97.30;;;;;;5081376;28;20373;-63
2021/10/29 08:42:31;;;;;;;27.95;17.13;;;10.20;97.20;;;;;;5077194;28;20566;-63
2021/10/29 08:44:56;;;;;;;31.65;19.90;;;10.20;97.10;;;;;;5083148;28;20110;-63
2021/10/29 08:47:25;;;;;;;32.88;19.85;;;10.30;97.00;;;;;;5083911;28;20500;-63
2021/10/29 08:49:51;;;;;;;30.45;19.02;;;10.30;97.00;;;;;;5072053;28;20563;-63
2021/10/29 08:52:22;;;;;;;27.95;18.83;;;10.40;97.10;;;;;;5090187;28;20032;-63
2021/10/29 08:54:52;;;;;;;28.15;18.52;;;10.50;97.00;;;;;;5078456;28;20036;-63
2021/10/29 08:57:19;;;;;;;37.20;19.05;;;10.60;96.80;;;;;;5085832;28;20375;-64
2021/10/29 08:59:51;;;;;;;27.95;18.40;;;10.60;96.80;;;;;;5072818;28;20544;-63
2021/10/29 09:02:25;;;;;;;26.88;17.67;;;10.60;96.70;;;;;;5082639;28;20048;-63
2021/10/29 09:04:57;;;;;;;31.65;18.48;;;10.70;96.70;;;;;;5073029;28;20082;-64
2021/10/29 09:10:34;;;;;;;32.63;19.08;;;10.80;96.70;;;;;;5078185;28;20032;-64
2021/10/29 09:32:55;;;;;;;28.60;18.40;;;11.10;96.30;;;;;;5078413;28;20356;-64
2021/10/29 09:35:23;;;;;;;25.20;17.20;;;11.20;96.20;;;;;;5077796;28;20112;-64
2021/10/29 09:37:58;;;;;;;23.65;16.27;;;11.20;96.20;;;;;;5081389;28;20028;-64
2021/10/29 09:40:27;;;;;;;28.77;18.05;;;11.30;96.20;;;;;;5082737;28;20025;-63
2021/10/29 09:42:54;;;;;;;26.08;18.23;;;11.40;96.20;;;;;;5081392;28;20092;-64
2021/10/29 09:45:26;;;;;;;25.58;17.77;;;11.40;96.20;;;;;;5073987;28;20018;-64
2021/10/29 09:48:30;;;;;;;29.08;17.35;;;11.50;96.10;;;;;;5072586;28;20020;-63
2021/10/29 09:50:58;;;;;;;24.73;16.23;;;11.60;96.10;;;;;;5074076;28;20043;-64
2021/10/29 09:58:48;;;;;;;24.02;17.05;;;11.80;95.90;;;;;;5083317;28;20035;-63
2021/10/29 10:01:15;;;;;;;23.05;15.93;;;11.80;95.80;;;;;;5075274;28;20063;-62
2021/10/29 10:03:42;;;;;;;24.88;16.67;;;11.90;95.80;;;;;;5072032;28;20032;-64
2021/10/29 10:06:12;;;;;;;24.83;16.52;;;11.90;95.80;;;;;;5073817;28;20426;-63
2021/10/29 10:08:38;;;;;;;25.05;16.88;;;12.00;95.60;;;;;;5072826;28;20025;-64
2021/10/29 10:11:05;;;;;;;26.05;17.67;;;12.10;95.70;;;;;;5070807;28;20021;-64
2021/10/29 10:13:32;;;;;;;25.23;16.25;;;12.20;95.50;;;;;;5078960;28;20503;-64
2021/10/29 10:16:01;;;;;;;25.30;16.60;;;12.20;95.60;;;;;;5091625;28;20467;-64
2021/10/29 10:18:27;;;;;;;27.85;18.65;;;12.30;95.50;;;;;;5072888;28;20441;-64
2021/10/29 10:20:56;;;;;;;26.00;17.20;;;12.30;95.20;;;;;;5091658;28;20066;-64
2021/10/29 10:23:29;;;;;;;26.00;17.02;;;12.30;95.20;;;;;;5079148;28;20032;-64
2021/10/29 10:26:09;;;;;;;25.98;17.15;;;12.40;95.10;;;;;;5073016;28;20029;-64
2021/10/29 10:28:49;;;;;;;25.27;17.08;;;12.50;95.10;;;;;;5080834;28;20032;-64
2021/10/29 10:40:31;;;;;;;26.90;17.35;;;12.60;94.90;;;;;;5095298;28;20053;-66
2021/10/29 10:46:04;;;;;;;25.15;16.70;;;12.70;94.50;;;;;;5091926;28;20047;-67
2021/10/29 10:48:43;;;;;;;21.15;14.82;;;12.80;94.50;;;;;;5077128;28;20062;-67
2021/10/29 10:51:48;;;;;;;24.33;16.27;;;12.80;94.50;;;;;;5072214;28;20051;-67
2021/10/29 10:54:20;;;;;;;21.98;15.40;;;12.90;94.50;;;;;;5074202;28;20047;-67
2021/10/29 10:59:59;;;;;;;24.85;17.15;;;13.00;94.30;;;;;;5073397;28;20036;-67
2021/10/29 11:05:17;;;;;;;21.80;15.30;;;13.10;94.50;;;;;;5074303;28;19970;-67
2021/10/29 11:10:15;;;;;;;22.15;15.48;;;13.20;94.00;;;;;;5081619;28;20039;-65
2021/10/29 11:12:40;;;;;;;21.85;16.13;;;13.20;94.00;;;;;;5068861;28;20028;-65
2021/10/29 11:15:17;;;;;;;22.27;16.85;;;13.30;93.90;;;;;;5077524;28;20095;-65
2021/10/29 11:18:02;;;;;;;26.95;16.92;;;13.30;93.70;;;;;;5078608;28;20097;-65
2021/10/29 11:20:49;;;;;;;23.88;16.35;;;13.30;93.60;;;;;;5073115;28;20119;-64
2021/10/29 11:23:27;;;;;;;23.85;15.88;;;13.40;93.40;;;;;;5070302;28;20062;-64
2021/10/29 11:26:22;;;;;;;24.10;15.52;;;13.50;93.40;;;;;;5079813;28;20029;-64
2021/10/29 11:28:51;;;;;;;25.55;16.27;;;13.50;93.40;;;;;;5044231;28;20423;-65
2021/10/29 11:31:32;;;;;;;23.05;16.85;;;13.60;93.30;;;;;;5079696;28;20023;-65
2021/10/29 11:34:00;;;;;;;23.40;15.60;;;13.70;93.20;;;;;;5073332;28;20028;-65
2021/10/29 11:36:33;;;;;;;22.23;16.38;;;13.70;93.10;;;;;;5071214;28;20028;-65
2021/10/29 11:39:00;;;;;;;20.63;14.18;;;13.80;93.10;;;;;;5072748;28;20064;-64
2021/10/29 11:41:28;;;;;;;22.48;14.85;;;13.90;92.90;;;;;;5070396;28;20423;-64
2021/10/29 11:44:26;;;;;;;22.60;15.25;;;13.90;92.70;;;;;;5069611;28;20028;-65
2021/10/29 11:46:56;;;;;;;21.55;15.70;;;14.00;93.00;;;;;;5030781;28;20036;-64
2021/10/29 11:49:25;;;;;;;21.98;15.98;;;14.00;92.40;;;;;;5074434;28;20044;-63
2021/10/29 11:51:54;;;;;;;23.58;16.83;;;14.10;92.30;;;;;;5072875;28;20028;-65
2021/10/29 11:54:25;;;;;;;23.75;15.20;;;14.20;92.60;;;;;;5078673;28;20044;-64
2021/10/29 12:07:25;;;;;;;23.65;16.98;;;14.40;91.80;;;;;;5073831;28;20449;-64
2021/10/29 12:09:56;;;;;;;22.90;16.25;;;14.40;91.90;;;;;;5074046;28;20545;-64
2021/10/29 12:12:27;;;;;;;21.75;15.98;;;14.40;91.90;;;;;;5087423;28;20487;-64
2021/10/29 12:14:55;;;;;;;22.67;15.95;;;14.50;91.80;;;;;;5081248;28;20032;-65
2021/10/29 12:17:30;;;;;;;28.38;19.23;;;14.50;91.80;;;;;;5074962;28;20078;-64
2021/10/29 12:19:59;;;;;;;20.83;14.95;;;14.60;91.70;;;;;;5081246;28;20438;-65
2021/10/29 12:22:37;;;;;;;27.25;16.45;;;14.60;91.70;;;;;;5076664;28;20399;-65
2021/10/29 12:25:24;;;;;;;25.02;15.57;;;14.70;91.60;;;;;;5082216;28;20052;-65
2021/10/29 12:27:59;;;;;;;19.33;14.23;;;14.70;91.50;;;;;;5073796;28;20387;-66
2021/10/29 12:33:17;;;;;;;26.75;17.83;;;14.80;91.40;;;;;;5088101;28;20403;-66
2021/10/29 13:03:10;;;;;;;;;;;15.00;90.50;;;;;;5080566;28;20503;-65
2021/10/29 13:05:35;;;;;;;19.52;13.57;;;15.10;91.00;;;;;;5079688;28;19917;-64
2021/10/29 13:08:20;;;;;;;23.95;15.90;;;15.10;90.70;;;;;;5076105;28;20036;-64
2021/10/29 13:10:46;;;;;;;18.93;14.83;;;15.20;90.50;;;;;;5079832;28;20079;-65
2021/10/29 13:13:22;;;;;;;19.58;15.30;;;15.30;90.40;;;;;;5079196;28;20039;-65
2021/10/29 13:15:48;;;;;;;22.13;15.13;;;15.30;90.20;;;;;;5074500;28;20066;-65
2021/10/29 13:18:20;;;;;;;20.98;14.70;;;15.30;90.20;;;;;;5080350;28;20074;-64
2021/10/29 13:21:22;;;;;;;21.15;15.48;;;15.40;90.20;;;;;;5073160;28;20056;-64
2021/10/29 13:26:29;;;;;;;17.55;15.35;;;15.40;89.80;;;;;;5075268;28;20070;-64
2021/10/29 13:34:28;;;;;;;19.10;14.63;;;15.60;89.60;;;;;;5082272;28;20107;-64
2021/10/29 13:37:01;;;;;;;20.63;14.60;;;15.60;89.50;;;;;;5074206;28;20064;-64
2021/10/29 13:50:54;;;;;;;21.55;14.13;;;15.70;88.40;;;;;;5073402;28;20520;-65
2021/10/29 13:58:59;;;;;;;20.70;13.67;;;15.90;88.20;;;;;;5073027;28;20066;-64
2021/10/29 14:01:45;;;;;;;15.85;12.20;;;15.90;88.00;;;;;;5080622;28;20430;-64
2021/10/29 14:29:02;;;;;;;18.20;14.52;;;16.00;86.90;;;;;;5072009;28;20032;-64
2021/10/29 14:31:47;;;;;;;20.00;13.82;;;16.00;86.50;;;;;;5078603;28;20032;-64
2021/10/29 14:34:17;;;;;;;19.80;14.27;;;16.00;87.00;;;;;;5072672;28;20025;-64
2021/10/29 14:39:16;;;;;;;20.35;13.85;;;16.00;86.40;;;;;;5082214;28;20034;-65
2021/10/29 14:42:00;;;;;;;21.67;14.98;;;16.00;86.60;;;;;;5076150;28;20058;-64
2021/10/29 14:45:17;;;;;;;20.23;14.13;;;16.00;86.20;;;;;;5084934;28;20039;-64
2021/10/29 14:47:21;;;;;;;21.25;14.75;;;16.00;86.40;;;;;;5056585;28;20043;-64
2021/10/29 14:49:54;;;;;;;18.20;14.25;;;16.00;86.30;;;;;;5086706;28;20020;-65
2021/10/29 14:52:49;;;;;;;18.00;14.73;;;15.90;86.30;;;;;;5072857;28;20036;-64
2021/10/29 15:00:58;;;;;;;21.00;14.77;;;15.80;86.40;;;;;;5075436;28;20028;-64
2021/10/29 15:03:52;;;;;;;21.55;16.40;;;15.70;86.50;;;;;;5070641;28;20395;-64
2021/10/29 15:06:28;;;;;;;22.27;16.23;;;15.70;86.70;;;;;;5076515;28;20093;-64
2021/10/29 15:25:30;;;;;;;21.60;16.73;;;15.30;86.90;;;;;;5070910;28;20627;-65
2021/10/29 15:28:15;;;;;;;20.40;16.02;;;15.20;86.90;;;;;;5069902;28;20044;-64
2021/10/29 15:51:40;;;;;;;25.20;17.13;;;14.70;88.10;;;;;;5078843;28;20107;-65
2021/10/29 15:54:09;;;;;;;24.00;18.05;;;14.60;88.10;;;;;;5071678;28;20054;-65
2021/10/29 15:56:41;;;;;;;21.10;16.25;;;14.60;88.30;;;;;;5085517;28;20032;-64
2021/10/29 15:59:30;;;;;;;24.60;17.40;;;14.60;88.60;;;;;;5071024;28;20032;-64
2021/10/29 16:02:14;;;;;;;26.95;19.23;;;14.50;88.70;;;;;;5069778;28;20032;-64
2021/10/29 16:18:21;;;;;;;25.00;19.00;;;14.20;89.90;;;;;;5070583;28;20286;-64
2021/10/29 16:20:47;;;;;;;29.38;19.70;;;14.20;90.00;;;;;;5075306;28;20093;-65
2021/10/29 16:23:13;;;;;;;25.58;18.92;;;14.10;90.00;;;;;;5075515;28;20040;-64
2021/10/29 16:25:55;;;;;;;23.65;19.23;;;14.10;90.10;;;;;;5070845;28;20052;-64
2021/10/29 16:28:26;;;;;;;23.48;18.67;;;14.00;90.20;;;;;;5069229;28;20107;-65
2021/10/29 16:30:52;;;;;;;32.47;18.83;;;14.00;90.30;;;;;;5076528;28;20559;-64
2021/10/29 16:33:25;;;;;;;23.15;18.10;;;13.90;90.40;;;;;;5086384;28;20464;-64
2021/10/29 16:35:51;;;;;;;24.88;18.65;;;13.80;90.50;;;;;;5075379;28;20287;-64
2021/10/29 16:38:17;;;;;;;25.85;19.60;;;13.80;90.60;;;;;;5078740;28;20525;-63
2021/10/29 16:40:43;;;;;;;26.80;19.92;;;13.80;90.70;;;;;;5074114;28;20029;-64
2021/10/29 16:43:09;;;;;;;29.65;20.23;;;13.70;90.90;;;;;;5083195;28;20089;-64
2021/10/29 16:45:41;;;;;;;31.27;21.25;;;13.70;90.90;;;;;;5077794;28;20393;-64
2021/10/29 16:48:07;;;;;;;26.17;20.52;;;13.60;90.90;;;;;;5081111;28;20043;-65
2021/10/29 16:50:33;;;;;;;26.80;21.63;;;13.60;91.00;;;;;;5077444;28;20464;-64
2021/10/29 16:52:59;;;;;;;28.05;21.70;;;13.50;91.10;;;;;;5081731;28;20036;-65
2021/10/29 16:55:25;;;;;;;32.55;21.52;;;13.50;91.10;;;;;;5087504;28;20458;-65
2021/10/29 16:57:51;;;;;;;28.20;20.25;;;13.40;91.20;;;;;;5082618;28;20480;-65
2021/10/29 17:00:16;;;;;;;30.98;21.15;;;13.40;91.30;;;;;;5077706;28;20039;-65